This is the latest recevied weather packets stored in our database for station/object F5ZYU-10. If no packets are shown the sender has not sent any weather packets the latest 10 day(s).
| Time | Temp. | Humidity | Pressure | Rain* | Wind** | Luminosity | Snow |
|---|---|---|---|---|---|---|---|
| 1787404400 | 18.89° C | 73% | 1026.7 hPa | - | - | - | - |
| 1787403506 | 18.89° C | 75% | 1026.8 hPa | - | - | - | - |
| 1787402599 | 18.89° C | 76% | 1026.9 hPa | - | - | - | - |
| 1787401698 | 18.33° C | 76% | 1027 hPa | - | - | - | - |
| 1787400798 | 18.33° C | 77% | 1027.2 hPa | - | - | - | - |
| 1787399905 | 18.33° C | 77% | 1027.1 hPa | - | - | - | - |
| 1787399005 | 17.78° C | 79% | 1027.2 hPa | - | - | - | - |
| 1787398098 | 18.33° C | 76% | 1027.4 hPa | - | - | - | - |
| 1787395398 | 17.22° C | 81% | 1027.7 hPa | - | - | - | - |
| 1787394505 | 16.67° C | 82% | 1027.7 hPa | - | - | - | - |
| 1787393605 | 16.67° C | 82% | 1027.8 hPa | - | - | - | - |
| 1787390905 | 16.11° C | 84% | 1027.8 hPa | - | - | - | - |
| 1787390006 | 15.56° C | 83% | 1027.6 hPa | - | - | - | - |
| 1787389098 | 15.56° C | 83% | 1027.6 hPa | - | - | - | - |
| 1787387300 | 15° C | 82% | 1027.4 hPa | - | - | - | - |
| 1787386419 | 14.44° C | 83% | 1027.3 hPa | - | - | - | - |
| 1787385518 | 14.44° C | 82% | 1027.4 hPa | - | - | - | - |
| 1787384618 | 14.44° C | 82% | 1027.4 hPa | - | - | - | - |
| 1787383724 | 14.44° C | 83% | 1027.5 hPa | - | - | - | - |
| 1787382825 | 14.44° C | 83% | 1027.6 hPa | - | - | - | - |
| 1787381024 | 13.89° C | 84% | 1027.4 hPa | - | - | - | - |
| 1787380134 | 13.89° C | 84% | 1027.5 hPa | - | - | - | - |
| 1787379225 | 13.89° C | 85% | 1027.5 hPa | - | - | - | - |
| 1787378332 | 13.89° C | 84% | 1027.4 hPa | - | - | - | - |
| 1787377434 | 13.89° C | 85% | 1027.4 hPa | - | - | - | - |
* Rain since midnight (hover to see other rain measurements)
** Current wind speed in m/s (hover to see current wind gust speed)